sensor_id;sensor_type;location;lat;lon;timestamp;P1;durP1;ratioP1;P2;durP2;ratioP2
53261;SDS011;39658;51.090;-1.786;2023-08-30T00:01:56;13.90;;;4.95;;
53261;SDS011;39658;51.090;-1.786;2023-08-30T00:04:23;11.38;;;4.50;;
53261;SDS011;39658;51.090;-1.786;2023-08-30T00:06:50;14.48;;;4.65;;
53261;SDS011;39658;51.090;-1.786;2023-08-30T00:09:17;10.05;;;3.72;;
53261;SDS011;39658;51.090;-1.786;2023-08-30T00:11:45;13.88;;;3.88;;
53261;SDS011;39658;51.090;-1.786;2023-08-30T00:14:12;9.55;;;3.50;;
53261;SDS011;39658;51.090;-1.786;2023-08-30T00:16:38;12.85;;;3.60;;
53261;SDS011;39658;51.090;-1.786;2023-08-30T00:19:05;8.13;;;2.85;;
53261;SDS011;39658;51.090;-1.786;2023-08-30T00:21:32;13.35;;;3.55;;
53261;SDS011;39658;51.090;-1.786;2023-08-30T00:23:59;9.05;;;2.30;;
53261;SDS011;39658;51.090;-1.786;2023-08-30T00:26:26;5.53;;;1.60;;
53261;SDS011;39658;51.090;-1.786;2023-08-30T00:28:54;7.43;;;2.30;;
53261;SDS011;39658;51.090;-1.786;2023-08-30T00:31:20;7.70;;;1.88;;
53261;SDS011;39658;51.090;-1.786;2023-08-30T00:33:48;6.32;;;1.52;;
53261;SDS011;39658;51.090;-1.786;2023-08-30T00:36:15;10.38;;;2.00;;
53261;SDS011;39658;51.090;-1.786;2023-08-30T00:38:43;10.75;;;2.38;;
53261;SDS011;39658;51.090;-1.786;2023-08-30T00:41:10;7.85;;;2.55;;
53261;SDS011;39658;51.090;-1.786;2023-08-30T00:43:37;12.52;;;3.08;;
53261;SDS011;39658;51.090;-1.786;2023-08-30T00:46:05;14.45;;;3.95;;
53261;SDS011;39658;51.090;-1.786;2023-08-30T00:48:31;12.43;;;4.72;;
53261;SDS011;39658;51.090;-1.786;2023-08-30T00:50:58;11.27;;;4.65;;
53261;SDS011;39658;51.090;-1.786;2023-08-30T00:53:25;12.00;;;4.30;;
53261;SDS011;39658;51.090;-1.786;2023-08-30T00:55:52;16.02;;;4.40;;
53261;SDS011;39658;51.090;-1.786;2023-08-30T00:58:19;19.73;;;4.22;;
53261;SDS011;39658;51.090;-1.786;2023-08-30T01:00:46;12.25;;;3.28;;
53261;SDS011;39658;51.090;-1.786;2023-08-30T01:03:14;6.43;;;2.72;;
53261;SDS011;39658;51.090;-1.786;2023-08-30T01:05:42;8.18;;;2.30;;
53261;SDS011;39658;51.090;-1.786;2023-08-30T01:08:08;6.07;;;2.00;;
53261;SDS011;39658;51.090;-1.786;2023-08-30T01:10:44;5.72;;;1.90;;
53261;SDS011;39658;51.090;-1.786;2023-08-30T01:13:18;6.38;;;1.42;;
53261;SDS011;39658;51.090;-1.786;2023-08-30T01:15:46;4.80;;;1.42;;
53261;SDS011;39658;51.090;-1.786;2023-08-30T01:18:15;11.77;;;2.58;;
53261;SDS011;39658;51.090;-1.786;2023-08-30T01:20:44;7.78;;;2.33;;
53261;SDS011;39658;51.090;-1.786;2023-08-30T01:23:14;5.70;;;2.35;;
53261;SDS011;39658;51.090;-1.786;2023-08-30T01:25:53;10.57;;;2.20;;
53261;SDS011;39658;51.090;-1.786;2023-08-30T01:28:31;5.75;;;2.17;;
53261;SDS011;39658;51.090;-1.786;2023-08-30T01:31:00;9.57;;;1.88;;
53261;SDS011;39658;51.090;-1.786;2023-08-30T01:33:28;12.43;;;2.67;;
53261;SDS011;39658;51.090;-1.786;2023-08-30T01:35:57;6.28;;;1.77;;
53261;SDS011;39658;51.090;-1.786;2023-08-30T01:38:26;6.53;;;2.13;;
53261;SDS011;39658;51.090;-1.786;2023-08-30T01:40:54;11.45;;;2.40;;
53261;SDS011;39658;51.090;-1.786;2023-08-30T01:43:22;10.77;;;1.90;;
53261;SDS011;39658;51.090;-1.786;2023-08-30T01:45:55;7.03;;;2.22;;
53261;SDS011;39658;51.090;-1.786;2023-08-30T01:48:23;9.20;;;2.55;;
53261;SDS011;39658;51.090;-1.786;2023-08-30T01:50:51;5.43;;;2.35;;
53261;SDS011;39658;51.090;-1.786;2023-08-30T01:53:19;5.38;;;2.03;;
53261;SDS011;39658;51.090;-1.786;2023-08-30T01:55:48;5.07;;;2.00;;
53261;SDS011;39658;51.090;-1.786;2023-08-30T01:58:15;6.82;;;2.53;;
53261;SDS011;39658;51.090;-1.786;2023-08-30T02:00:42;10.93;;;2.70;;
53261;SDS011;39658;51.090;-1.786;2023-08-30T02:03:10;10.18;;;2.15;;
53261;SDS011;39658;51.090;-1.786;2023-08-30T02:05:39;11.73;;;3.60;;
53261;SDS011;39658;51.090;-1.786;2023-08-30T02:08:13;10.63;;;2.78;;
53261;SDS011;39658;51.090;-1.786;2023-08-30T02:10:45;10.73;;;2.67;;
53261;SDS011;39658;51.090;-1.786;2023-08-30T02:13:18;7.38;;;2.70;;
53261;SDS011;39658;51.090;-1.786;2023-08-30T02:15:51;13.43;;;3.35;;
53261;SDS011;39658;51.090;-1.786;2023-08-30T02:18:20;13.00;;;2.08;;
53261;SDS011;39658;51.090;-1.786;2023-08-30T02:20:46;6.97;;;2.20;;
53261;SDS011;39658;51.090;-1.786;2023-08-30T02:23:13;5.57;;;1.48;;
53261;SDS011;39658;51.090;-1.786;2023-08-30T02:25:40;9.35;;;2.42;;
53261;SDS011;39658;51.090;-1.786;2023-08-30T02:28:07;7.35;;;2.20;;
53261;SDS011;39658;51.090;-1.786;2023-08-30T02:30:33;6.35;;;2.05;;
53261;SDS011;39658;51.090;-1.786;2023-08-30T02:33:00;7.00;;;1.48;;
53261;SDS011;39658;51.090;-1.786;2023-08-30T02:35:28;7.22;;;2.03;;
53261;SDS011;39658;51.090;-1.786;2023-08-30T02:37:55;7.18;;;2.40;;
53261;SDS011;39658;51.090;-1.786;2023-08-30T02:40:22;8.00;;;2.58;;
53261;SDS011;39658;51.090;-1.786;2023-08-30T02:42:49;9.48;;;2.63;;
53261;SDS011;39658;51.090;-1.786;2023-08-30T02:45:16;13.20;;;2.42;;
53261;SDS011;39658;51.090;-1.786;2023-08-30T02:47:44;8.43;;;2.05;;
53261;SDS011;39658;51.090;-1.786;2023-08-30T02:50:11;5.60;;;2.15;;
53261;SDS011;39658;51.090;-1.786;2023-08-30T02:52:39;8.52;;;2.05;;
53261;SDS011;39658;51.090;-1.786;2023-08-30T02:55:06;8.23;;;2.10;;
53261;SDS011;39658;51.090;-1.786;2023-08-30T02:57:33;8.77;;;2.60;;
53261;SDS011;39658;51.090;-1.786;2023-08-30T03:00:00;7.82;;;2.45;;
53261;SDS011;39658;51.090;-1.786;2023-08-30T03:02:30;8.30;;;2.72;;
53261;SDS011;39658;51.090;-1.786;2023-08-30T03:04:58;9.55;;;2.55;;
53261;SDS011;39658;51.090;-1.786;2023-08-30T03:07:25;9.73;;;2.90;;
53261;SDS011;39658;51.090;-1.786;2023-08-30T03:09:53;8.77;;;2.85;;
53261;SDS011;39658;51.090;-1.786;2023-08-30T03:12:20;12.00;;;3.42;;
53261;SDS011;39658;51.090;-1.786;2023-08-30T03:14:47;11.85;;;3.63;;
53261;SDS011;39658;51.090;-1.786;2023-08-30T03:17:14;12.05;;;4.07;;
53261;SDS011;39658;51.090;-1.786;2023-08-30T03:19:40;10.75;;;3.50;;
53261;SDS011;39658;51.090;-1.786;2023-08-30T03:22:07;9.65;;;3.70;;
53261;SDS011;39658;51.090;-1.786;2023-08-30T03:24:34;13.45;;;3.75;;
53261;SDS011;39658;51.090;-1.786;2023-08-30T03:27:02;12.23;;;3.67;;
53261;SDS011;39658;51.090;-1.786;2023-08-30T03:29:29;16.85;;;3.67;;
53261;SDS011;39658;51.090;-1.786;2023-08-30T03:31:56;13.00;;;3.88;;
53261;SDS011;39658;51.090;-1.786;2023-08-30T03:34:22;14.50;;;4.00;;
53261;SDS011;39658;51.090;-1.786;2023-08-30T03:36:49;10.48;;;3.40;;
53261;SDS011;39658;51.090;-1.786;2023-08-30T03:39:19;13.38;;;4.55;;
53261;SDS011;39658;51.090;-1.786;2023-08-30T03:41:46;12.68;;;4.32;;
53261;SDS011;39658;51.090;-1.786;2023-08-30T03:44:14;20.60;;;4.63;;
53261;SDS011;39658;51.090;-1.786;2023-08-30T03:46:41;11.18;;;4.65;;
53261;SDS011;39658;51.090;-1.786;2023-08-30T03:49:07;10.70;;;3.80;;
53261;SDS011;39658;51.090;-1.786;2023-08-30T03:51:34;20.13;;;4.72;;
53261;SDS011;39658;51.090;-1.786;2023-08-30T03:54:01;9.90;;;3.95;;
53261;SDS011;39658;51.090;-1.786;2023-08-30T03:56:28;10.55;;;3.92;;
53261;SDS011;39658;51.090;-1.786;2023-08-30T03:58:54;14.30;;;4.35;;
53261;SDS011;39658;51.090;-1.786;2023-08-30T04:01:22;10.18;;;3.40;;
53261;SDS011;39658;51.090;-1.786;2023-08-30T04:03:49;12.55;;;4.32;;
53261;SDS011;39658;51.090;-1.786;2023-08-30T04:06:16;11.02;;;3.28;;
53261;SDS011;39658;51.090;-1.786;2023-08-30T04:08:42;15.65;;;3.92;;
53261;SDS011;39658;51.090;-1.786;2023-08-30T04:11:09;12.70;;;4.25;;
53261;SDS011;39658;51.090;-1.786;2023-08-30T04:13:36;10.52;;;4.00;;
53261;SDS011;39658;51.090;-1.786;2023-08-30T04:16:03;11.30;;;3.58;;
53261;SDS011;39658;51.090;-1.786;2023-08-30T04:18:31;8.60;;;3.70;;
53261;SDS011;39658;51.090;-1.786;2023-08-30T04:20:58;10.85;;;3.40;;
53261;SDS011;39658;51.090;-1.786;2023-08-30T04:23:27;13.00;;;3.83;;
53261;SDS011;39658;51.090;-1.786;2023-08-30T04:25:54;14.57;;;3.13;;
53261;SDS011;39658;51.090;-1.786;2023-08-30T04:28:20;12.75;;;3.20;;
53261;SDS011;39658;51.090;-1.786;2023-08-30T04:30:47;7.82;;;3.13;;
53261;SDS011;39658;51.090;-1.786;2023-08-30T04:33:14;8.18;;;2.42;;
53261;SDS011;39658;51.090;-1.786;2023-08-30T04:35:42;15.32;;;3.22;;
53261;SDS011;39658;51.090;-1.786;2023-08-30T04:38:09;13.45;;;2.85;;
53261;SDS011;39658;51.090;-1.786;2023-08-30T04:40:35;13.55;;;3.47;;
53261;SDS011;39658;51.090;-1.786;2023-08-30T04:43:02;14.07;;;3.78;;
53261;SDS011;39658;51.090;-1.786;2023-08-30T04:45:29;9.23;;;3.30;;
53261;SDS011;39658;51.090;-1.786;2023-08-30T04:47:56;10.80;;;3.58;;
53261;SDS011;39658;51.090;-1.786;2023-08-30T04:50:23;9.48;;;3.28;;
53261;SDS011;39658;51.090;-1.786;2023-08-30T04:52:51;15.48;;;4.18;;
53261;SDS011;39658;51.090;-1.786;2023-08-30T04:55:18;11.77;;;3.17;;
53261;SDS011;39658;51.090;-1.786;2023-08-30T04:57:45;10.38;;;2.65;;
53261;SDS011;39658;51.090;-1.786;2023-08-30T05:00:13;10.63;;;2.85;;
53261;SDS011;39658;51.090;-1.786;2023-08-30T05:02:40;15.73;;;2.88;;
53261;SDS011;39658;51.090;-1.786;2023-08-30T05:05:08;7.78;;;2.55;;
53261;SDS011;39658;51.090;-1.786;2023-08-30T05:07:38;12.27;;;2.92;;
53261;SDS011;39658;51.090;-1.786;2023-08-30T05:10:07;9.30;;;2.63;;
53261;SDS011;39658;51.090;-1.786;2023-08-30T05:12:34;10.93;;;2.63;;
53261;SDS011;39658;51.090;-1.786;2023-08-30T05:15:01;9.57;;;2.42;;
53261;SDS011;39658;51.090;-1.786;2023-08-30T05:17:29;8.77;;;2.85;;
53261;SDS011;39658;51.090;-1.786;2023-08-30T05:19:56;8.48;;;2.47;;
53261;SDS011;39658;51.090;-1.786;2023-08-30T05:22:22;7.75;;;2.55;;
53261;SDS011;39658;51.090;-1.786;2023-08-30T05:24:49;7.68;;;1.88;;
53261;SDS011;39658;51.090;-1.786;2023-08-30T05:27:17;9.63;;;2.40;;
53261;SDS011;39658;51.090;-1.786;2023-08-30T05:29:44;5.38;;;2.03;;
53261;SDS011;39658;51.090;-1.786;2023-08-30T05:32:10;8.25;;;2.08;;
53261;SDS011;39658;51.090;-1.786;2023-08-30T05:34:37;7.40;;;2.20;;
53261;SDS011;39658;51.090;-1.786;2023-08-30T05:37:04;12.95;;;2.63;;
53261;SDS011;39658;51.090;-1.786;2023-08-30T05:39:31;5.00;;;2.03;;
53261;SDS011;39658;51.090;-1.786;2023-08-30T05:41:57;9.13;;;2.58;;
53261;SDS011;39658;51.090;-1.786;2023-08-30T05:44:26;9.25;;;2.35;;
53261;SDS011;39658;51.090;-1.786;2023-08-30T05:46:52;13.35;;;2.45;;
53261;SDS011;39658;51.090;-1.786;2023-08-30T05:49:19;7.07;;;2.08;;
53261;SDS011;39658;51.090;-1.786;2023-08-30T05:51:46;4.90;;;1.90;;
53261;SDS011;39658;51.090;-1.786;2023-08-30T05:54:12;7.57;;;2.30;;
53261;SDS011;39658;51.090;-1.786;2023-08-30T05:56:39;4.50;;;1.75;;
53261;SDS011;39658;51.090;-1.786;2023-08-30T05:59:07;7.05;;;2.38;;
53261;SDS011;39658;51.090;-1.786;2023-08-30T06:01:35;9.52;;;2.45;;
53261;SDS011;39658;51.090;-1.786;2023-08-30T06:04:02;5.47;;;2.10;;
53261;SDS011;39658;51.090;-1.786;2023-08-30T06:06:29;6.60;;;2.13;;
53261;SDS011;39658;51.090;-1.786;2023-08-30T06:08:57;8.65;;;2.47;;
53261;SDS011;39658;51.090;-1.786;2023-08-30T06:11:24;6.20;;;2.30;;
53261;SDS011;39658;51.090;-1.786;2023-08-30T06:13:56;7.85;;;2.30;;
53261;SDS011;39658;51.090;-1.786;2023-08-30T06:16:24;9.63;;;2.00;;
53261;SDS011;39658;51.090;-1.786;2023-08-30T06:18:52;7.35;;;2.28;;
53261;SDS011;39658;51.090;-1.786;2023-08-30T06:21:19;11.02;;;2.58;;
53261;SDS011;39658;51.090;-1.786;2023-08-30T06:23:46;5.95;;;2.33;;
53261;SDS011;39658;51.090;-1.786;2023-08-30T06:26:12;6.93;;;2.45;;
53261;SDS011;39658;51.090;-1.786;2023-08-30T06:28:39;8.77;;;2.30;;
53261;SDS011;39658;51.090;-1.786;2023-08-30T06:31:06;5.90;;;2.65;;
53261;SDS011;39658;51.090;-1.786;2023-08-30T06:33:33;7.60;;;2.53;;
53261;SDS011;39658;51.090;-1.786;2023-08-30T06:36:02;6.60;;;2.67;;
53261;SDS011;39658;51.090;-1.786;2023-08-30T06:38:29;9.60;;;2.70;;
53261;SDS011;39658;51.090;-1.786;2023-08-30T06:40:57;10.43;;;2.72;;
53261;SDS011;39658;51.090;-1.786;2023-08-30T06:43:24;13.93;;;2.40;;
53261;SDS011;39658;51.090;-1.786;2023-08-30T06:45:51;7.22;;;2.83;;
53261;SDS011;39658;51.090;-1.786;2023-08-30T06:48:18;7.03;;;2.40;;
53261;SDS011;39658;51.090;-1.786;2023-08-30T06:50:45;6.65;;;2.42;;
53261;SDS011;39658;51.090;-1.786;2023-08-30T06:53:13;11.10;;;2.65;;
53261;SDS011;39658;51.090;-1.786;2023-08-30T06:55:40;10.88;;;2.40;;
53261;SDS011;39658;51.090;-1.786;2023-08-30T06:58:06;7.50;;;2.97;;
53261;SDS011;39658;51.090;-1.786;2023-08-30T07:00:33;10.20;;;3.28;;
53261;SDS011;39658;51.090;-1.786;2023-08-30T07:03:00;9.70;;;2.42;;
53261;SDS011;39658;51.090;-1.786;2023-08-30T07:05:27;7.80;;;2.00;;
53261;SDS011;39658;51.090;-1.786;2023-08-30T07:07:54;7.85;;;2.75;;
53261;SDS011;39658;51.090;-1.786;2023-08-30T07:10:22;9.35;;;2.85;;
53261;SDS011;39658;51.090;-1.786;2023-08-30T07:12:48;8.40;;;2.47;;
53261;SDS011;39658;51.090;-1.786;2023-08-30T07:15:18;11.80;;;2.40;;
53261;SDS011;39658;51.090;-1.786;2023-08-30T07:17:44;9.00;;;1.98;;
53261;SDS011;39658;51.090;-1.786;2023-08-30T07:20:11;11.07;;;2.55;;
53261;SDS011;39658;51.090;-1.786;2023-08-30T07:22:38;10.43;;;2.30;;
53261;SDS011;39658;51.090;-1.786;2023-08-30T07:25:05;7.65;;;2.30;;
53261;SDS011;39658;51.090;-1.786;2023-08-30T07:27:35;21.05;;;2.92;;
53261;SDS011;39658;51.090;-1.786;2023-08-30T07:30:02;8.85;;;2.38;;
53261;SDS011;39658;51.090;-1.786;2023-08-30T07:32:29;9.90;;;2.53;;
53261;SDS011;39658;51.090;-1.786;2023-08-30T07:34:56;9.82;;;2.03;;
53261;SDS011;39658;51.090;-1.786;2023-08-30T07:37:23;7.80;;;2.10;;
53261;SDS011;39658;51.090;-1.786;2023-08-30T07:39:50;8.25;;;1.85;;
53261;SDS011;39658;51.090;-1.786;2023-08-30T07:42:17;10.43;;;2.40;;
53261;SDS011;39658;51.090;-1.786;2023-08-30T07:44:46;9.82;;;1.95;;
53261;SDS011;39658;51.090;-1.786;2023-08-30T07:47:13;4.90;;;1.73;;
53261;SDS011;39658;51.090;-1.786;2023-08-30T07:49:40;9.27;;;2.28;;
53261;SDS011;39658;51.090;-1.786;2023-08-30T07:52:07;8.38;;;2.63;;
53261;SDS011;39658;51.090;-1.786;2023-08-30T07:54:36;5.63;;;1.92;;
53261;SDS011;39658;51.090;-1.786;2023-08-30T07:57:03;5.90;;;1.90;;
53261;SDS011;39658;51.090;-1.786;2023-08-30T07:59:32;6.38;;;1.80;;
53261;SDS011;39658;51.090;-1.786;2023-08-30T08:02:01;9.02;;;2.17;;
53261;SDS011;39658;51.090;-1.786;2023-08-30T08:04:28;7.25;;;2.35;;
53261;SDS011;39658;51.090;-1.786;2023-08-30T08:06:54;4.80;;;1.77;;
53261;SDS011;39658;51.090;-1.786;2023-08-30T08:09:21;4.85;;;1.88;;
53261;SDS011;39658;51.090;-1.786;2023-08-30T08:11:48;10.20;;;2.45;;
53261;SDS011;39658;51.090;-1.786;2023-08-30T08:14:15;5.82;;;1.73;;
53261;SDS011;39658;51.090;-1.786;2023-08-30T08:16:42;6.82;;;1.58;;
53261;SDS011;39658;51.090;-1.786;2023-08-30T08:19:10;9.27;;;1.50;;
53261;SDS011;39658;51.090;-1.786;2023-08-30T08:21:37;11.60;;;1.90;;
53261;SDS011;39658;51.090;-1.786;2023-08-30T08:24:04;14.10;;;2.20;;
53261;SDS011;39658;51.090;-1.786;2023-08-30T08:26:31;11.27;;;2.15;;
53261;SDS011;39658;51.090;-1.786;2023-08-30T08:28:58;8.85;;;1.80;;
53261;SDS011;39658;51.090;-1.786;2023-08-30T08:31:25;5.53;;;1.40;;
53261;SDS011;39658;51.090;-1.786;2023-08-30T08:34:06;6.72;;;2.47;;
53261;SDS011;39658;51.090;-1.786;2023-08-30T08:36:36;3.55;;;1.40;;
53261;SDS011;39658;51.090;-1.786;2023-08-30T08:39:03;7.68;;;1.67;;
53261;SDS011;39658;51.090;-1.786;2023-08-30T08:41:32;9.30;;;2.35;;
53261;SDS011;39658;51.090;-1.786;2023-08-30T08:44:02;15.25;;;5.82;;
53261;SDS011;39658;51.090;-1.786;2023-08-30T08:46:31;17.00;;;5.00;;
53261;SDS011;39658;51.090;-1.786;2023-08-30T08:48:59;7.00;;;2.50;;
53261;SDS011;39658;51.090;-1.786;2023-08-30T08:51:28;7.13;;;1.40;;
53261;SDS011;39658;51.090;-1.786;2023-08-30T08:54:02;5.63;;;1.20;;
53261;SDS011;39658;51.090;-1.786;2023-08-30T08:56:30;6.93;;;1.33;;
53261;SDS011;39658;51.090;-1.786;2023-08-30T08:58:57;5.20;;;0.80;;
53261;SDS011;39658;51.090;-1.786;2023-08-30T09:01:24;3.63;;;1.10;;
53261;SDS011;39658;51.090;-1.786;2023-08-30T09:03:51;5.40;;;0.93;;
53261;SDS011;39658;51.090;-1.786;2023-08-30T09:06:18;8.60;;;1.20;;
53261;SDS011;39658;51.090;-1.786;2023-08-30T09:08:45;3.70;;;0.90;;
53261;SDS011;39658;51.090;-1.786;2023-08-30T09:11:13;3.75;;;1.42;;
53261;SDS011;39658;51.090;-1.786;2023-08-30T09:16:11;7.28;;;1.35;;
53261;SDS011;39658;51.090;-1.786;2023-08-30T09:18:39;7.82;;;1.17;;
53261;SDS011;39658;51.090;-1.786;2023-08-30T09:21:05;3.53;;;0.90;;
53261;SDS011;39658;51.090;-1.786;2023-08-30T09:23:33;5.25;;;1.02;;
53261;SDS011;39658;51.090;-1.786;2023-08-30T09:26:00;5.32;;;0.98;;
53261;SDS011;39658;51.090;-1.786;2023-08-30T09:28:28;3.17;;;0.93;;
53261;SDS011;39658;51.090;-1.786;2023-08-30T09:30:57;9.18;;;1.58;;
53261;SDS011;39658;51.090;-1.786;2023-08-30T09:33:30;5.32;;;1.48;;
53261;SDS011;39658;51.090;-1.786;2023-08-30T09:35:58;4.18;;;1.00;;
53261;SDS011;39658;51.090;-1.786;2023-08-30T09:38:24;4.00;;;1.08;;
53261;SDS011;39658;51.090;-1.786;2023-08-30T09:40:52;3.58;;;1.10;;
53261;SDS011;39658;51.090;-1.786;2023-08-30T09:43:19;3.63;;;1.00;;
53261;SDS011;39658;51.090;-1.786;2023-08-30T09:48:17;2.60;;;0.82;;
53261;SDS011;39658;51.090;-1.786;2023-08-30T09:50:47;2.58;;;0.82;;
53261;SDS011;39658;51.090;-1.786;2023-08-30T09:53:19;4.30;;;0.85;;
53261;SDS011;39658;51.090;-1.786;2023-08-30T09:55:47;2.15;;;0.55;;
53261;SDS011;39658;51.090;-1.786;2023-08-30T09:58:15;4.20;;;1.10;;
53261;SDS011;39658;51.090;-1.786;2023-08-30T10:00:42;3.90;;;1.40;;
53261;SDS011;39658;51.090;-1.786;2023-08-30T10:03:10;4.68;;;1.02;;
53261;SDS011;39658;51.090;-1.786;2023-08-30T10:05:38;3.95;;;1.40;;
53261;SDS011;39658;51.090;-1.786;2023-08-30T10:08:07;3.17;;;0.93;;
53261;SDS011;39658;51.090;-1.786;2023-08-30T10:10:35;4.38;;;1.10;;
53261;SDS011;39658;51.090;-1.786;2023-08-30T10:13:04;4.10;;;0.90;;
53261;SDS011;39658;51.090;-1.786;2023-08-30T10:15:32;4.35;;;1.02;;
53261;SDS011;39658;51.090;-1.786;2023-08-30T10:18:02;3.55;;;0.93;;
53261;SDS011;39658;51.090;-1.786;2023-08-30T10:20:33;5.20;;;1.45;;
53261;SDS011;39658;51.090;-1.786;2023-08-30T10:23:01;6.05;;;2.40;;
53261;SDS011;39658;51.090;-1.786;2023-08-30T10:25:29;4.32;;;1.00;;
53261;SDS011;39658;51.090;-1.786;2023-08-30T10:27:58;4.75;;;1.23;;
53261;SDS011;39658;51.090;-1.786;2023-08-30T10:30:26;4.30;;;1.00;;
53261;SDS011;39658;51.090;-1.786;2023-08-30T10:32:53;6.65;;;1.20;;
53261;SDS011;39658;51.090;-1.786;2023-08-30T10:35:19;4.97;;;1.33;;
53261;SDS011;39658;51.090;-1.786;2023-08-30T10:37:58;3.88;;;1.05;;
53261;SDS011;39658;51.090;-1.786;2023-08-30T10:40:26;4.88;;;0.95;;
53261;SDS011;39658;51.090;-1.786;2023-08-30T10:42:59;4.18;;;1.00;;
53261;SDS011;39658;51.090;-1.786;2023-08-30T10:45:27;3.90;;;1.52;;
53261;SDS011;39658;51.090;-1.786;2023-08-30T10:47:55;4.82;;;1.27;;
53261;SDS011;39658;51.090;-1.786;2023-08-30T10:50:27;5.53;;;1.27;;
53261;SDS011;39658;51.090;-1.786;2023-08-30T10:52:57;3.83;;;1.02;;
53261;SDS011;39658;51.090;-1.786;2023-08-30T10:55:24;6.43;;;1.35;;
53261;SDS011;39658;51.090;-1.786;2023-08-30T10:57:58;2.85;;;1.00;;
53261;SDS011;39658;51.090;-1.786;2023-08-30T11:00:27;3.65;;;0.77;;
53261;SDS011;39658;51.090;-1.786;2023-08-30T11:02:55;1.90;;;0.77;;
53261;SDS011;39658;51.090;-1.786;2023-08-30T11:05:22;3.17;;;1.08;;
53261;SDS011;39658;51.090;-1.786;2023-08-30T11:07:50;3.20;;;0.98;;
53261;SDS011;39658;51.090;-1.786;2023-08-30T11:10:18;4.45;;;0.98;;
53261;SDS011;39658;51.090;-1.786;2023-08-30T11:12:46;2.58;;;0.70;;
53261;SDS011;39658;51.090;-1.786;2023-08-30T11:15:14;3.45;;;1.02;;
53261;SDS011;39658;51.090;-1.786;2023-08-30T11:17:41;2.33;;;0.80;;
53261;SDS011;39658;51.090;-1.786;2023-08-30T11:20:09;3.28;;;0.90;;
53261;SDS011;39658;51.090;-1.786;2023-08-30T11:22:38;3.97;;;1.08;;
53261;SDS011;39658;51.090;-1.786;2023-08-30T11:25:07;4.57;;;0.90;;
53261;SDS011;39658;51.090;-1.786;2023-08-30T11:27:36;3.33;;;0.95;;
53261;SDS011;39658;51.090;-1.786;2023-08-30T11:30:04;2.72;;;0.80;;
53261;SDS011;39658;51.090;-1.786;2023-08-30T11:32:34;5.28;;;0.90;;
53261;SDS011;39658;51.090;-1.786;2023-08-30T11:35:01;2.95;;;1.02;;
53261;SDS011;39658;51.090;-1.786;2023-08-30T11:37:29;4.25;;;1.00;;
53261;SDS011;39658;51.090;-1.786;2023-08-30T11:39:55;2.45;;;0.80;;
53261;SDS011;39658;51.090;-1.786;2023-08-30T11:42:22;3.65;;;0.77;;
53261;SDS011;39658;51.090;-1.786;2023-08-30T11:44:51;3.10;;;0.75;;
53261;SDS011;39658;51.090;-1.786;2023-08-30T11:47:18;2.20;;;0.60;;
53261;SDS011;39658;51.090;-1.786;2023-08-30T11:49:46;3.65;;;0.95;;
53261;SDS011;39658;51.090;-1.786;2023-08-30T11:52:14;3.80;;;0.80;;
53261;SDS011;39658;51.090;-1.786;2023-08-30T11:54:41;4.63;;;1.08;;
53261;SDS011;39658;51.090;-1.786;2023-08-30T11:57:09;1.88;;;0.65;;
53261;SDS011;39658;51.090;-1.786;2023-08-30T11:59:36;4.90;;;1.23;;
53261;SDS011;39658;51.090;-1.786;2023-08-30T12:02:04;4.97;;;1.00;;
53261;SDS011;39658;51.090;-1.786;2023-08-30T12:04:33;5.25;;;1.10;;
53261;SDS011;39658;51.090;-1.786;2023-08-30T12:07:06;3.50;;;1.00;;
53261;SDS011;39658;51.090;-1.786;2023-08-30T12:09:32;3.45;;;0.98;;
53261;SDS011;39658;51.090;-1.786;2023-08-30T12:12:04;3.47;;;0.75;;
53261;SDS011;39658;51.090;-1.786;2023-08-30T12:14:34;4.38;;;0.82;;
53261;SDS011;39658;51.090;-1.786;2023-08-30T12:17:01;4.22;;;0.80;;
53261;SDS011;39658;51.090;-1.786;2023-08-30T12:19:30;2.63;;;0.98;;
53261;SDS011;39658;51.090;-1.786;2023-08-30T12:22:02;5.07;;;0.98;;
53261;SDS011;39658;51.090;-1.786;2023-08-30T12:24:39;6.50;;;1.30;;
53261;SDS011;39658;51.090;-1.786;2023-08-30T12:27:07;4.65;;;1.30;;
53261;SDS011;39658;51.090;-1.786;2023-08-30T12:29:35;5.90;;;2.13;;
53261;SDS011;39658;51.090;-1.786;2023-08-30T12:32:02;3.60;;;1.10;;
53261;SDS011;39658;51.090;-1.786;2023-08-30T12:34:31;3.15;;;1.00;;
53261;SDS011;39658;51.090;-1.786;2023-08-30T12:36:57;2.60;;;0.80;;
53261;SDS011;39658;51.090;-1.786;2023-08-30T12:39:24;4.53;;;1.23;;
53261;SDS011;39658;51.090;-1.786;2023-08-30T12:41:51;2.60;;;0.68;;
53261;SDS011;39658;51.090;-1.786;2023-08-30T12:44:18;2.47;;;0.70;;
53261;SDS011;39658;51.090;-1.786;2023-08-30T12:46:44;1.95;;;0.82;;
53261;SDS011;39658;51.090;-1.786;2023-08-30T12:49:11;3.45;;;1.05;;
53261;SDS011;39658;51.090;-1.786;2023-08-30T12:51:39;2.83;;;1.05;;
53261;SDS011;39658;51.090;-1.786;2023-08-30T12:54:06;6.32;;;1.88;;
53261;SDS011;39658;51.090;-1.786;2023-08-30T12:56:33;2.58;;;0.80;;
53261;SDS011;39658;51.090;-1.786;2023-08-30T12:59:00;5.45;;;0.93;;
53261;SDS011;39658;51.090;-1.786;2023-08-30T13:01:26;3.33;;;1.10;;
53261;SDS011;39658;51.090;-1.786;2023-08-30T13:03:53;3.22;;;0.82;;
53261;SDS011;39658;51.090;-1.786;2023-08-30T13:06:20;4.90;;;0.80;;
53261;SDS011;39658;51.090;-1.786;2023-08-30T13:08:48;9.57;;;1.58;;
53261;SDS011;39658;51.090;-1.786;2023-08-30T13:11:15;4.03;;;0.93;;
53261;SDS011;39658;51.090;-1.786;2023-08-30T13:13:42;3.42;;;1.20;;
53261;SDS011;39658;51.090;-1.786;2023-08-30T13:16:08;4.38;;;1.20;;
53261;SDS011;39658;51.090;-1.786;2023-08-30T13:18:35;3.42;;;0.90;;
53261;SDS011;39658;51.090;-1.786;2023-08-30T13:21:02;3.78;;;1.02;;
53261;SDS011;39658;51.090;-1.786;2023-08-30T13:23:29;4.43;;;0.95;;
53261;SDS011;39658;51.090;-1.786;2023-08-30T13:25:57;5.78;;;1.27;;
53261;SDS011;39658;51.090;-1.786;2023-08-30T13:28:24;6.60;;;1.17;;
53261;SDS011;39658;51.090;-1.786;2023-08-30T13:30:51;4.00;;;0.95;;
53261;SDS011;39658;51.090;-1.786;2023-08-30T13:33:19;4.13;;;1.20;;
53261;SDS011;39658;51.090;-1.786;2023-08-30T13:35:48;5.00;;;1.17;;
53261;SDS011;39658;51.090;-1.786;2023-08-30T13:38:16;3.70;;;1.30;;
53261;SDS011;39658;51.090;-1.786;2023-08-30T13:40:43;9.35;;;1.50;;
53261;SDS011;39658;51.090;-1.786;2023-08-30T13:43:11;2.95;;;1.27;;
53261;SDS011;39658;51.090;-1.786;2023-08-30T13:45:37;5.55;;;1.40;;
53261;SDS011;39658;51.090;-1.786;2023-08-30T13:48:04;4.38;;;1.38;;
53261;SDS011;39658;51.090;-1.786;2023-08-30T13:50:31;3.80;;;1.00;;
53261;SDS011;39658;51.090;-1.786;2023-08-30T13:52:58;6.47;;;1.30;;
53261;SDS011;39658;51.090;-1.786;2023-08-30T13:55:25;3.50;;;1.23;;
53261;SDS011;39658;51.090;-1.786;2023-08-30T13:57:52;4.47;;;1.10;;
53261;SDS011;39658;51.090;-1.786;2023-08-30T14:00:20;5.80;;;1.30;;
53261;SDS011;39658;51.090;-1.786;2023-08-30T14:02:47;4.38;;;1.10;;
53261;SDS011;39658;51.090;-1.786;2023-08-30T14:05:14;4.00;;;1.30;;
53261;SDS011;39658;51.090;-1.786;2023-08-30T14:07:41;5.15;;;1.25;;
53261;SDS011;39658;51.090;-1.786;2023-08-30T14:10:08;4.40;;;1.30;;
53261;SDS011;39658;51.090;-1.786;2023-08-30T14:12:36;3.90;;;1.02;;
53261;SDS011;39658;51.090;-1.786;2023-08-30T14:15:03;3.95;;;1.17;;
53261;SDS011;39658;51.090;-1.786;2023-08-30T14:17:32;4.03;;;1.20;;
53261;SDS011;39658;51.090;-1.786;2023-08-30T14:19:58;3.40;;;1.38;;
53261;SDS011;39658;51.090;-1.786;2023-08-30T14:22:26;4.43;;;1.20;;
53261;SDS011;39658;51.090;-1.786;2023-08-30T14:24:53;4.63;;;1.27;;
53261;SDS011;39658;51.090;-1.786;2023-08-30T14:27:19;5.40;;;1.08;;
53261;SDS011;39658;51.090;-1.786;2023-08-30T14:29:46;2.38;;;0.80;;
53261;SDS011;39658;51.090;-1.786;2023-08-30T14:32:13;2.67;;;0.93;;
53261;SDS011;39658;51.090;-1.786;2023-08-30T14:34:41;3.00;;;0.95;;
53261;SDS011;39658;51.090;-1.786;2023-08-30T14:37:08;3.25;;;1.33;;
53261;SDS011;39658;51.090;-1.786;2023-08-30T14:39:35;3.28;;;1.10;;